createdAt,value
2023-06-08T00:49:55.666Z,12.93
2023-06-08T00:52:45.587Z,10.48
2023-06-08T00:55:34.895Z,11.75
2023-06-08T00:58:23.639Z,14.15
2023-06-08T01:01:13.553Z,12.05
2023-06-08T01:04:07.222Z,15.38
2023-06-08T01:07:17.805Z,10.98
2023-06-08T01:10:09.579Z,15.45
2023-06-08T01:13:04.922Z,13.80
2023-06-08T01:16:01.849Z,16.45
2023-06-08T01:18:52.989Z,10.25
2023-06-08T01:22:01.917Z,8.82
2023-06-08T01:24:58.020Z,6.50
2023-06-08T01:27:49.458Z,6.70
2023-06-08T01:30:38.108Z,4.40
2023-06-08T01:33:30.249Z,7.20
2023-06-08T01:36:24.296Z,9.27
2023-06-08T01:39:19.525Z,5.57
2023-06-08T01:42:11.826Z,5.05
2023-06-08T01:45:02.572Z,6.20
2023-06-08T01:47:55.553Z,4.18
2023-06-08T01:50:45.902Z,4.45
2023-06-08T01:53:34.667Z,6.25
2023-06-08T01:56:23.203Z,3.72
2023-06-08T01:59:13.138Z,6.95
2023-06-08T02:02:01.614Z,5.22
2023-06-08T02:04:50.136Z,5.43
2023-06-08T02:07:38.948Z,3.58
2023-06-08T02:10:27.531Z,3.90
2023-06-08T02:13:16.617Z,3.65
2023-06-08T02:16:06.712Z,3.55
2023-06-08T02:18:55.240Z,5.25
2023-06-08T02:21:44.492Z,3.72
2023-06-08T02:24:33.015Z,4.93
2023-06-08T02:27:21.667Z,5.97
2023-06-08T02:30:13.978Z,4.38
2023-06-08T02:33:04.525Z,3.90
2023-06-08T02:35:53.125Z,3.47
2023-06-08T02:38:41.587Z,4.75
2023-06-08T02:41:30.160Z,4.32
2023-06-08T02:44:18.670Z,4.43
2023-06-08T02:47:07.520Z,2.83
2023-06-08T02:49:57.537Z,7.93
2023-06-08T02:52:46.516Z,3.97
2023-06-08T02:55:36.224Z,5.50
2023-06-08T02:58:24.902Z,6.57
2023-06-08T03:01:21.415Z,5.22
2023-06-08T03:04:14.089Z,4.07
2023-06-08T03:07:04.277Z,4.00
2023-06-08T03:09:52.840Z,4.10
2023-06-08T03:12:41.388Z,4.70
2023-06-08T03:15:30.908Z,4.90
2023-06-08T03:18:19.483Z,4.90
2023-06-08T03:21:08.907Z,5.10
2023-06-08T03:23:59.084Z,5.07
2023-06-08T03:26:47.745Z,4.82
2023-06-08T03:29:36.333Z,7.65
2023-06-08T03:32:24.776Z,7.53
2023-06-08T03:35:13.193Z,6.00
2023-06-08T03:38:01.960Z,4.88
2023-06-08T03:40:52.044Z,4.03
2023-06-08T03:43:41.174Z,5.60
2023-06-08T03:46:30.190Z,7.30
2023-06-08T03:49:18.939Z,3.55
2023-06-08T03:52:08.018Z,7.65
2023-06-08T03:54:56.681Z,5.35
2023-06-08T03:57:46.720Z,5.40
2023-06-08T04:00:35.547Z,5.00
2023-06-08T04:03:26.097Z,4.03
2023-06-08T04:06:17.924Z,6.32
2023-06-08T04:09:06.629Z,3.70
2023-06-08T04:11:55.573Z,5.03
2023-06-08T04:14:46.320Z,4.63
2023-06-08T04:17:35.709Z,4.13
2023-06-08T04:20:24.500Z,6.78
2023-06-08T04:23:13.471Z,5.25
2023-06-08T04:26:03.014Z,3.58
2023-06-08T04:28:52.427Z,3.35
2023-06-08T04:31:42.613Z,4.03
2023-06-08T04:34:33.117Z,3.90
2023-06-08T04:37:21.668Z,3.20
2023-06-08T04:40:12.181Z,4.07
2023-06-08T04:43:00.915Z,5.93
2023-06-08T04:45:58.765Z,4.85
2023-06-08T04:48:49.819Z,5.22
2023-06-08T04:51:40.850Z,5.43
2023-06-08T04:54:32.312Z,6.95
2023-06-08T04:57:23.593Z,5.32
2023-06-08T05:00:13.917Z,4.90
2023-06-08T05:03:02.694Z,3.60
2023-06-08T05:05:52.856Z,4.32
2023-06-08T05:08:41.375Z,4.35
2023-06-08T05:11:29.906Z,6.57
2023-06-08T05:14:18.468Z,4.80
2023-06-08T05:17:07.026Z,4.78
2023-06-08T05:19:55.568Z,5.32
2023-06-08T05:22:45.550Z,7.68
2023-06-08T05:25:37.984Z,6.35
2023-06-08T05:28:26.838Z,7.82
2023-06-08T05:31:15.550Z,7.57
2023-06-08T05:34:04.211Z,7.13
2023-06-08T05:36:52.861Z,8.75
2023-06-08T05:39:42.752Z,10.05
2023-06-08T05:42:31.271Z,5.03
2023-06-08T05:45:19.729Z,6.68
2023-06-08T05:48:09.737Z,6.07
2023-06-08T05:50:58.399Z,7.28
2023-06-08T05:53:46.926Z,7.38
2023-06-08T05:56:36.825Z,4.80
2023-06-08T05:59:25.842Z,6.72
2023-06-08T06:02:14.795Z,7.68
2023-06-08T06:05:03.657Z,5.28
2023-06-08T06:07:52.531Z,6.45
2023-06-08T06:10:41.181Z,5.65
2023-06-08T06:13:33.018Z,4.38
2023-06-08T06:16:21.572Z,6.88
2023-06-08T06:19:10.111Z,6.97
2023-06-08T06:21:58.613Z,8.45
2023-06-08T06:24:47.165Z,8.63
2023-06-08T06:27:42.167Z,6.05
2023-06-08T06:30:38.890Z,6.00
2023-06-08T06:33:27.921Z,12.38
2023-06-08T06:36:16.463Z,8.65
2023-06-08T06:39:05.600Z,7.22
2023-06-08T06:41:54.113Z,10.75
2023-06-08T06:44:42.597Z,12.95
2023-06-08T06:47:32.612Z,8.73
2023-06-08T06:50:21.140Z,9.57
2023-06-08T06:53:09.647Z,13.25
2023-06-08T06:55:58.450Z,12.10
2023-06-08T06:58:47.539Z,13.40
2023-06-08T07:01:37.308Z,11.48
2023-06-08T07:04:27.521Z,10.95
2023-06-08T07:07:18.592Z,10.13
2023-06-08T07:10:12.867Z,8.73
2023-06-08T07:13:02.669Z,10.43
2023-06-08T07:15:51.269Z,12.18
2023-06-08T07:18:39.763Z,10.48
2023-06-08T07:21:32.874Z,8.75
2023-06-08T07:25:05.730Z,11.50
2023-06-08T07:27:34.656Z,11.98
2023-06-08T07:30:23.173Z,15.60
2023-06-08T07:33:11.690Z,13.45
2023-06-08T07:36:00.802Z,15.25
2023-06-08T07:38:51.891Z,11.27
2023-06-08T07:41:40.589Z,10.25
2023-06-08T07:44:29.174Z,7.68
2023-06-08T07:47:18.426Z,11.45
2023-06-08T07:50:08.090Z,11.18
2023-06-08T07:52:56.789Z,7.43
2023-06-08T07:55:46.691Z,9.45
2023-06-08T07:58:35.753Z,10.05
2023-06-08T08:01:24.536Z,12.90
2023-06-08T08:04:13.237Z,8.65
2023-06-08T08:07:02.362Z,13.32
2023-06-08T08:09:50.848Z,11.85
2023-06-08T08:12:41.174Z,15.90
2023-06-08T08:15:29.726Z,8.98
2023-06-08T08:18:18.231Z,9.02
2023-06-08T08:21:06.815Z,9.60
2023-06-08T08:23:55.464Z,9.13
2023-06-08T08:26:44.011Z,6.93
2023-06-08T08:29:33.959Z,11.68
2023-06-08T08:32:22.441Z,12.55
2023-06-08T08:35:12.018Z,10.57
2023-06-08T08:38:00.770Z,11.00
2023-06-08T08:40:50.814Z,12.95
2023-06-08T08:43:52.786Z,12.15
2023-06-08T08:46:44.988Z,13.65
2023-06-08T08:49:37.603Z,14.25
2023-06-08T08:52:30.338Z,13.93
2023-06-08T08:55:34.011Z,10.10
2023-06-08T08:58:24.023Z,10.88
2023-06-08T09:01:13.029Z,13.50
2023-06-08T09:04:04.117Z,13.57
2023-06-08T09:06:56.784Z,10.18
2023-06-08T09:10:26.733Z,12.18
2023-06-08T09:13:22.694Z,8.50
2023-06-08T09:16:12.512Z,9.35
2023-06-08T09:19:08.444Z,10.02
2023-06-08T09:21:57.442Z,10.40
2023-06-08T09:24:52.136Z,12.77
2023-06-08T09:27:40.918Z,9.65
2023-06-08T09:30:29.757Z,8.40
2023-06-08T09:33:26.252Z,6.13
2023-06-08T09:36:17.780Z,7.47
2023-06-08T09:39:08.218Z,8.13
2023-06-08T09:41:59.571Z,9.00
2023-06-08T09:44:48.082Z,9.38
2023-06-08T09:47:36.643Z,11.27
2023-06-08T09:50:25.284Z,8.27
2023-06-08T09:53:16.905Z,9.98
2023-06-08T09:56:07.313Z,6.60
2023-06-08T09:58:58.590Z,7.65
2023-06-08T10:01:52.372Z,11.60
2023-06-08T10:04:45.963Z,9.00
2023-06-08T10:07:37.380Z,10.82
2023-06-08T10:10:33.266Z,11.45
2023-06-08T10:13:22.181Z,7.07
2023-06-08T10:16:11.418Z,8.15
2023-06-08T10:19:00.935Z,7.78
2023-06-08T10:21:50.883Z,7.93
2023-06-08T10:24:44.482Z,6.72
2023-06-08T10:27:39.303Z,9.40
2023-06-08T10:30:30.085Z,9.93
2023-06-08T10:33:21.252Z,6.90
2023-06-08T10:36:12.009Z,6.38
2023-06-08T10:39:01.396Z,8.52
2023-06-08T10:41:56.884Z,7.75
2023-06-08T10:44:55.605Z,10.98
2023-06-08T10:47:45.167Z,8.27
2023-06-08T10:50:38.875Z,10.48
2023-06-08T10:53:43.217Z,6.63
2023-06-08T10:56:43.456Z,8.55
2023-06-08T10:59:36.578Z,8.02
2023-06-08T11:02:29.299Z,9.57
2023-06-08T11:05:18.584Z,9.43
2023-06-08T11:08:09.029Z,8.85
2023-06-08T11:10:57.898Z,8.07
2023-06-08T11:13:46.792Z,7.95
2023-06-08T11:16:35.359Z,9.00
2023-06-08T11:19:26.528Z,6.82
2023-06-08T11:22:15.354Z,6.78
2023-06-08T11:25:04.526Z,6.43
2023-06-08T11:27:56.526Z,5.60
2023-06-08T11:30:45.155Z,4.85
2023-06-08T11:33:34.498Z,3.72
2023-06-08T11:36:25.864Z,4.93
2023-06-08T11:39:14.601Z,5.20
2023-06-08T11:42:03.350Z,3.88
2023-06-08T11:44:52.256Z,4.20
2023-06-08T11:47:42.637Z,4.95
2023-06-08T11:50:31.479Z,5.05
2023-06-08T11:53:25.225Z,5.57
2023-06-08T11:56:15.126Z,5.63
2023-06-08T11:59:04.979Z,4.13
2023-06-08T12:01:57.990Z,5.05
2023-06-08T12:04:47.594Z,4.18
2023-06-08T12:07:37.473Z,6.47
2023-06-08T12:10:33.770Z,3.55
2023-06-08T12:13:24.066Z,3.58
2023-06-08T12:16:13.426Z,3.45
2023-06-08T12:19:02.292Z,5.30
2023-06-08T12:21:54.955Z,3.08
2023-06-08T12:24:43.920Z,6.80
2023-06-08T12:27:37.752Z,4.97
2023-06-08T12:30:26.817Z,3.40
2023-06-08T12:33:18.957Z,6.07
2023-06-08T12:36:08.064Z,7.40
2023-06-08T12:38:58.361Z,4.38
2023-06-08T12:41:47.261Z,3.63
2023-06-08T12:44:37.478Z,4.47
2023-06-08T12:47:26.443Z,4.43
2023-06-08T12:50:15.895Z,3.55
2023-06-08T12:53:04.785Z,3.33
2023-06-08T12:55:53.699Z,6.07
2023-06-08T12:58:42.565Z,4.53
2023-06-08T13:01:33.208Z,4.43
2023-06-08T13:04:22.162Z,6.25
2023-06-08T13:07:10.990Z,3.78
2023-06-08T13:09:59.920Z,5.78
2023-06-08T13:12:49.746Z,4.07
2023-06-08T13:15:39.487Z,3.35
2023-06-08T13:18:31.025Z,4.60
2023-06-08T13:21:20.072Z,3.63
2023-06-08T13:24:09.210Z,3.00
2023-06-08T13:26:59.267Z,4.93
2023-06-08T13:29:49.832Z,3.88
2023-06-08T13:32:38.824Z,5.90
2023-06-08T13:35:29.092Z,2.08
2023-06-08T13:38:17.973Z,4.38
2023-06-08T13:41:08.432Z,2.85
2023-06-08T13:43:58.816Z,4.00
2023-06-08T13:46:48.293Z,3.05
2023-06-08T13:49:37.126Z,2.88
2023-06-08T13:52:29.473Z,4.93
2023-06-08T13:55:18.856Z,4.20
2023-06-08T13:58:07.696Z,4.28
2023-06-08T14:00:56.609Z,3.92
2023-06-08T14:03:45.521Z,3.75
2023-06-08T14:06:34.705Z,5.13
2023-06-08T14:09:25.078Z,6.03
2023-06-08T14:12:14.250Z,6.75
2023-06-08T14:15:03.086Z,5.00
2023-06-08T14:17:51.918Z,3.40
2023-06-08T14:20:42.346Z,4.93
2023-06-08T14:23:31.054Z,4.50
2023-06-08T14:26:21.207Z,5.55
2023-06-08T14:29:11.181Z,9.05
2023-06-08T14:31:59.737Z,4.80
2023-06-08T14:34:48.574Z,6.63
2023-06-08T14:37:37.172Z,9.95
2023-06-08T14:40:25.816Z,5.72
2023-06-08T14:43:15.696Z,6.43
2023-06-08T14:46:04.195Z,7.90
2023-06-08T14:48:52.874Z,5.53
2023-06-08T14:51:41.498Z,5.78
2023-06-08T14:54:30.276Z,8.18
2023-06-08T14:57:18.912Z,7.45
2023-06-08T15:00:11.117Z,4.72
2023-06-08T15:03:00.061Z,7.90
2023-06-08T15:05:48.685Z,4.75
2023-06-08T15:08:37.382Z,5.03
2023-06-08T15:11:26.383Z,7.00
2023-06-08T15:14:14.835Z,3.50
2023-06-08T15:17:05.252Z,8.13
2023-06-08T15:19:53.801Z,4.63
2023-06-08T15:22:42.429Z,3.50
2023-06-08T15:25:31.574Z,3.75
2023-06-08T15:28:20.857Z,5.43
2023-06-08T15:31:09.508Z,4.18
2023-06-08T15:33:59.603Z,5.60
2023-06-08T15:36:48.227Z,3.13
2023-06-08T15:39:36.780Z,3.05
2023-06-08T15:42:25.276Z,4.35
2023-06-08T15:45:13.874Z,4.22
2023-06-08T15:48:02.676Z,3.17
2023-06-08T15:50:52.816Z,3.17
2023-06-08T15:53:41.310Z,3.17
2023-06-08T15:56:30.168Z,3.03
2023-06-08T15:59:18.822Z,4.85
2023-06-08T16:02:07.721Z,5.32
2023-06-08T16:04:56.589Z,3.35
2023-06-08T16:07:46.502Z,3.33
2023-06-08T16:10:34.971Z,2.70
2023-06-08T16:13:23.505Z,3.65
2023-06-08T16:16:12.137Z,3.85
2023-06-08T16:19:00.724Z,4.03
2023-06-08T16:21:49.282Z,4.43
2023-06-08T16:24:41.240Z,5.00
2023-06-08T16:27:30.044Z,5.25
2023-06-08T16:30:18.613Z,2.40
2023-06-08T16:33:07.207Z,3.08
2023-06-08T16:35:55.729Z,3.00
2023-06-08T16:38:46.215Z,4.18
2023-06-08T16:41:36.415Z,2.50
2023-06-08T16:44:25.064Z,2.85
2023-06-08T16:47:13.792Z,2.90
2023-06-08T16:50:02.412Z,2.33
2023-06-08T16:52:52.450Z,4.45
2023-06-08T16:55:40.939Z,2.75
2023-06-08T16:58:31.271Z,2.90
2023-06-08T17:01:19.926Z,3.42
2023-06-08T17:04:08.493Z,4.53
2023-06-08T17:06:57.508Z,2.78
2023-06-08T17:09:46.257Z,4.43
2023-06-08T17:12:34.835Z,4.47
2023-06-08T17:15:24.814Z,3.28
2023-06-08T17:18:13.424Z,3.25
2023-06-08T17:21:03.014Z,3.53
2023-06-08T17:23:53.241Z,3.40
2023-06-08T17:26:42.161Z,3.85
2023-06-08T17:29:31.076Z,3.63
2023-06-08T17:32:20.935Z,3.60
2023-06-08T17:35:10.267Z,3.22
2023-06-08T17:37:59.015Z,3.10
2023-06-08T17:40:47.603Z,3.83
2023-06-08T17:43:48.168Z,3.35
2023-06-08T17:46:37.032Z,2.85
2023-06-08T17:49:27.033Z,4.45
2023-06-08T17:52:15.608Z,2.70
2023-06-08T17:55:06.341Z,2.58
2023-06-08T17:57:55.523Z,4.43
2023-06-08T18:00:44.129Z,3.38
2023-06-08T18:03:32.706Z,3.13
2023-06-08T18:06:25.812Z,3.35
2023-06-08T18:09:15.034Z,3.42
2023-06-08T18:12:03.843Z,4.53
2023-06-08T18:14:52.365Z,3.75
2023-06-08T18:17:41.376Z,4.97
2023-06-08T18:20:30.156Z,3.08
2023-06-08T18:23:21.018Z,3.85
2023-06-08T18:26:09.728Z,3.38
2023-06-08T18:28:58.530Z,2.65
2023-06-08T18:31:47.245Z,7.55
2023-06-08T18:34:35.963Z,3.35
2023-06-08T18:37:24.478Z,3.97
2023-06-08T18:40:15.029Z,3.53
2023-06-08T18:43:03.956Z,4.57
2023-06-08T18:45:52.946Z,3.45
2023-06-08T18:48:41.538Z,3.67
2023-06-08T18:51:30.225Z,4.20
2023-06-08T18:54:19.635Z,3.15
2023-06-08T18:57:09.936Z,3.15
2023-06-08T18:59:58.507Z,4.97
2023-06-08T19:02:47.384Z,5.07
2023-06-08T19:05:36.412Z,5.32
2023-06-08T19:08:25.262Z,4.47
2023-06-08T19:11:14.035Z,6.07
2023-06-08T19:14:04.198Z,4.55
2023-06-08T19:16:53.065Z,6.03
2023-06-08T19:19:41.789Z,4.72
2023-06-08T19:22:30.409Z,5.38
2023-06-08T19:25:19.201Z,4.28
2023-06-08T19:28:07.890Z,4.63
2023-06-08T19:30:57.852Z,3.28
2023-06-08T19:33:46.656Z,6.22
2023-06-08T19:36:35.501Z,6.53
2023-06-08T19:39:24.138Z,4.22
2023-06-08T19:42:12.662Z,3.35
2023-06-08T19:45:01.258Z,3.80
2023-06-08T19:47:51.411Z,5.80
2023-06-08T19:50:40.042Z,4.70
2023-06-08T19:53:28.706Z,5.25
2023-06-08T19:56:17.869Z,3.58
2023-06-08T19:59:06.476Z,3.22
2023-06-08T20:01:55.331Z,4.60
2023-06-08T20:04:45.307Z,5.18
2023-06-08T20:07:35.646Z,5.93
2023-06-08T20:10:24.228Z,4.75
2023-06-08T20:13:12.993Z,3.42
2023-06-08T20:16:01.522Z,5.75
2023-06-08T20:18:52.046Z,4.47
2023-06-08T20:21:43.637Z,4.38
2023-06-08T20:25:03.690Z,3.80
2023-06-08T20:27:52.504Z,3.92
2023-06-08T20:30:41.093Z,5.75
2023-06-08T20:33:29.688Z,5.88
2023-06-08T20:36:18.469Z,4.68
2023-06-08T20:39:08.815Z,4.25
2023-06-08T20:41:57.847Z,4.65
2023-06-08T20:44:46.442Z,6.47
2023-06-08T20:47:35.006Z,5.20
2023-06-08T20:50:23.665Z,5.68
2023-06-08T20:53:12.197Z,3.63
2023-06-08T20:56:02.812Z,4.78
2023-06-08T20:58:51.713Z,3.80
2023-06-08T21:01:40.252Z,5.78
2023-06-08T21:04:30.776Z,5.75
2023-06-08T21:07:19.793Z,5.00
2023-06-08T21:10:09.368Z,6.93
2023-06-08T21:12:59.533Z,4.85
2023-06-08T21:15:48.119Z,6.57
2023-06-08T21:18:36.667Z,4.95
2023-06-08T21:21:25.176Z,4.55
2023-06-08T21:24:13.643Z,5.18
2023-06-08T21:27:02.248Z,4.13
2023-06-08T21:29:52.223Z,5.50
2023-06-08T21:32:49.900Z,6.38
2023-06-08T21:35:38.778Z,7.40
2023-06-08T21:38:28.028Z,3.58
2023-06-08T21:41:16.897Z,4.90
2023-06-08T21:44:05.963Z,4.68
2023-06-08T21:46:55.984Z,2.92
2023-06-08T21:49:44.571Z,3.25
2023-06-08T21:52:33.082Z,4.28
2023-06-08T21:55:21.570Z,3.85
2023-06-08T21:58:10.108Z,5.80
2023-06-08T22:00:58.757Z,4.07
2023-06-08T22:03:49.042Z,4.20
2023-06-08T22:06:37.859Z,5.60
2023-06-08T22:09:27.112Z,3.78
2023-06-08T22:12:15.774Z,2.90
2023-06-08T22:15:05.260Z,4.25
2023-06-08T22:17:54.036Z,7.07
2023-06-08T22:20:45.389Z,3.65
2023-06-08T22:23:34.198Z,4.25
2023-06-08T22:26:23.059Z,3.58
2023-06-08T22:29:11.881Z,3.80
2023-06-08T22:32:00.804Z,5.07
2023-06-08T22:34:49.839Z,2.40
2023-06-08T22:37:40.204Z,2.72
2023-06-08T22:40:29.092Z,3.83
2023-06-08T22:43:17.940Z,4.03
2023-06-08T22:46:06.916Z,3.20
2023-06-08T22:48:55.811Z,4.25
2023-06-08T22:51:46.159Z,2.33
2023-06-08T22:54:36.351Z,3.33
2023-06-08T22:57:25.172Z,4.85
2023-06-08T23:00:14.677Z,3.35
2023-06-08T23:03:03.541Z,5.68
2023-06-08T23:05:54.571Z,4.25
2023-06-08T23:08:45.888Z,2.47
2023-06-08T23:11:40.438Z,3.35
2023-06-08T23:14:29.342Z,3.03
2023-06-08T23:17:18.539Z,2.70
2023-06-08T23:20:08.043Z,4.30
2023-06-08T23:22:56.859Z,4.55
2023-06-08T23:25:45.687Z,3.67
2023-06-08T23:28:38.435Z,3.13
2023-06-08T23:31:27.549Z,3.47
2023-06-08T23:34:16.554Z,3.88
2023-06-08T23:37:06.573Z,1.83
2023-06-08T23:39:55.488Z,2.35
2023-06-08T23:42:44.416Z,3.50
2023-06-08T23:45:34.555Z,3.10
2023-06-08T23:48:23.431Z,5.03
2023-06-08T23:51:12.849Z,4.65
2023-06-08T23:54:01.898Z,3.80
2023-06-08T23:56:50.674Z,2.90
2023-06-08T23:59:39.831Z,4.13
